Time;durP1;ratioP1;P1;durP2;ratioP2;P2;SDS_P1;SDS_P2;PMS_P1;PMS_P2;Temp;Humidity;BMP_temperature;BMP_pressure;BME280_temperature;BME280_humidity;BME280_pressure;Samples;Min_cycle;Max_cycle;Signal;HPM_P1;HPM_P2
2023/09/04 00:02:17;;;;;;;8.57;5.63;;;;;;;14.55;100.00;102547.06;4804793;29;20043;-88
2023/09/04 00:04:43;;;;;;;7.37;5.20;;;;;;;14.53;100.00;102540.16;4791305;30;20126;-88
2023/09/04 00:07:08;;;;;;;8.40;5.72;;;;;;;14.51;100.00;102542.22;4804805;29;20032;-87
2023/09/04 00:09:34;;;;;;;9.70;6.73;;;;;;;14.43;100.00;102532.28;4790048;29;20099;-87
2023/09/04 00:12:00;;;;;;;7.53;6.00;;;;;;;14.35;100.00;102532.44;4805021;29;20071;-88
2023/09/04 00:14:25;;;;;;;7.07;6.00;;;;;;;14.29;100.00;102525.91;4774718;30;20138;-88
2023/09/04 00:16:51;;;;;;;8.20;5.87;;;;;;;14.27;100.00;102532.59;4789583;30;20035;-88
2023/09/04 00:19:19;;;;;;;7.45;6.15;;;;;;;14.24;100.00;102531.13;4789738;29;20031;-88
2023/09/04 00:21:44;;;;;;;7.60;6.20;;;;;;;14.20;100.00;102538.00;4790943;30;20042;-88
2023/09/04 00:24:10;;;;;;;11.80;7.07;;;;;;;14.11;100.00;102528.28;4789094;30;20039;-88
2023/09/04 00:26:35;;;;;;;8.17;6.33;;;;;;;14.08;100.00;102526.78;4789689;30;20031;-88
2023/09/04 00:29:01;;;;;;;10.50;6.73;;;;;;;14.10;100.00;102532.91;4804806;29;20046;-88
2023/09/04 00:31:26;;;;;;;7.13;6.03;;;;;;;14.07;100.00;102532.44;4760408;30;20046;-87
2023/09/04 00:33:52;;;;;;;9.77;6.00;;;;;;;14.03;100.00;102526.56;4774692;30;20122;-88
2023/09/04 00:36:17;;;;;;;7.10;6.10;;;;;;;14.03;100.00;102530.13;4789288;29;20505;-88
2023/09/04 00:38:43;;;;;;;6.90;6.10;;;;;;;13.95;100.00;102523.94;4774918;30;20027;-88
2023/09/04 00:41:08;;;;;;;11.02;6.78;;;;;;;13.90;100.00;102524.56;4790581;29;20533;-89
2023/09/04 00:43:35;;;;;;;7.57;6.20;;;;;;;13.89;100.00;102531.03;4790460;29;20047;-88
2023/09/04 00:46:01;;;;;;;7.47;6.57;;;;;;;13.83;100.00;102520.91;4789231;29;20042;-88
2023/09/04 00:48:27;;;;;;;10.43;6.90;;;;;;;13.83;100.00;102537.28;4789455;30;20122;-88
2023/09/04 00:50:53;;;;;;;7.57;6.72;;;;;;;13.81;100.00;102537.47;4788339;29;20385;-88
2023/09/04 00:53:18;;;;;;;10.43;7.83;;;;;;;13.77;100.00;102538.06;4789399;30;20043;-88
2023/09/04 00:55:45;;;;;;;9.50;6.80;;;;;;;13.75;100.00;102535.53;4773878;30;20070;-89
2023/09/04 00:58:11;;;;;;;9.60;6.80;;;;;;;13.75;100.00;102535.53;4789861;29;20058;-88
2023/09/04 01:00:37;;;;;;;8.43;7.07;;;;;;;13.73;100.00;102534.91;4788898;29;20059;-88
2023/09/04 01:03:03;;;;;;;12.45;7.10;;;;;;;13.69;100.00;102531.69;4789268;30;20092;-88
2023/09/04 01:05:32;;;;;;;10.97;7.43;;;;;;;13.68;100.00;102530.03;4788838;30;20120;-88
2023/09/04 01:07:59;;;;;;;9.02;6.88;;;;;;;13.64;100.00;102522.41;4759566;30;20043;-88
2023/09/04 01:10:34;;;;;;;9.70;7.25;;;;;;;13.62;100.00;102522.59;4788684;30;20045;-88
2023/09/04 01:13:12;;;;;;;9.05;6.72;;;;;;;13.59;100.00;102524.91;4790239;29;20114;-88
2023/09/04 01:15:37;;;;;;;10.55;6.93;;;;;;;13.57;100.00;102524.22;4788762;29;20078;-88
2023/09/04 01:18:03;;;;;;;9.07;7.53;;;;;;;13.53;100.00;102521.06;4803712;29;20031;-88
2023/09/04 01:20:33;;;;;;;10.07;7.10;;;;;;;13.48;100.00;102529.00;4788720;29;20126;-88
2023/09/04 01:22:59;;;;;;;8.98;7.32;;;;;;;13.45;100.00;102521.16;4790240;29;20042;-88
2023/09/04 01:25:49;;;;;;;8.70;7.13;;;;;;;13.41;100.00;102515.28;4789375;30;20380;-88
2023/09/04 01:28:40;;;;;;;8.75;7.70;;;;;;;13.38;100.00;102518.41;4789776;30;20100;-88
2023/09/04 01:31:20;;;;;;;11.73;8.38;;;;;;;13.36;100.00;102509.56;4788364;29;20041;-88
2023/09/04 01:33:51;;;;;;;8.97;7.90;;;;;;;13.31;100.00;102521.00;4803573;29;20170;-87
2023/09/04 01:36:19;;;;;;;10.15;7.82;;;;;;;13.27;100.00;102516.13;4789761;29;20063;-88
2023/09/04 01:38:46;;;;;;;10.38;8.27;;;;;;;13.27;100.00;102527.91;4788540;29;20031;-88
2023/09/04 01:41:11;;;;;;;10.63;7.72;;;;;;;13.21;100.00;102517.75;4803136;29;20122;-88
2023/09/04 01:43:37;;;;;;;13.27;8.33;;;;;;;13.21;100.00;102511.44;4788675;30;20088;-88
2023/09/04 01:46:03;;;;;;;10.30;7.80;;;;;;;13.21;100.00;102520.47;4803081;29;20369;-88
2023/09/04 01:48:28;;;;;;;9.80;8.15;;;;;;;13.18;100.00;102526.31;4789711;29;20491;-87
2023/09/04 01:50:54;;;;;;;10.73;8.20;;;;;;;13.17;100.00;102530.09;4787891;29;20377;-88
2023/09/04 01:53:20;;;;;;;10.35;8.27;;;;;;;13.12;100.00;102524.34;4803036;29;20130;-88
2023/09/04 01:55:45;;;;;;;12.77;9.18;;;;;;;13.07;100.00;102521.38;4787974;29;20126;-88
2023/09/04 01:58:11;;;;;;;12.63;8.40;;;;;;;13.09;100.00;102527.47;4772906;30;20059;-87
2023/09/04 02:00:37;;;;;;;9.90;8.40;;;;;;;13.01;100.00;102516.66;4787686;29;20502;-88
2023/09/04 02:03:03;;;;;;;13.18;8.77;;;;;;;13.00;100.00;102513.09;4789089;29;20063;-88
2023/09/04 02:05:28;;;;;;;11.75;7.90;;;;;;;12.94;100.00;102509.25;4788704;29;20063;-88
2023/09/04 02:07:54;;;;;;;13.30;8.90;;;;;;;12.94;100.00;102509.25;4772997;30;20481;-88
2023/09/04 02:10:22;;;;;;;15.27;8.73;;;;;;;12.88;100.00;102510.03;4802651;29;20088;-88
2023/09/04 02:12:48;;;;;;;14.77;9.40;;;;;;;12.84;100.00;102505.97;4773479;30;20043;-88
2023/09/04 02:15:13;;;;;;;9.83;8.43;;;;;;;12.79;100.00;102497.56;4787935;30;20130;-89
2023/09/04 02:17:39;;;;;;;12.63;8.73;;;;;;;12.82;100.00;102502.63;4772607;30;20043;-88
2023/09/04 02:20:05;;;;;;;12.47;8.73;;;;;;;12.80;100.00;102500.09;4787816;29;20288;-88
2023/09/04 02:22:30;;;;;;;10.52;8.45;;;;;;;12.78;100.00;102498.56;4787861;29;20035;-88
2023/09/04 02:24:56;;;;;;;12.00;8.57;;;;;;;12.80;100.00;102497.34;4772056;30;20465;-88
2023/09/04 02:27:21;;;;;;;11.67;8.47;;;;;;;12.72;100.00;102483.84;4802544;29;20074;-88
2023/09/04 02:29:47;;;;;;;11.23;9.03;;;;;;;12.73;100.00;102487.41;4801893;29;20055;-88
2023/09/04 02:32:12;;;;;;;11.97;8.70;;;;;;;12.72;100.00;102483.00;4787595;30;20056;-88
2023/09/04 02:34:40;;;;;;;12.43;8.85;;;;;;;12.70;100.00;102487.81;4787481;30;20039;-88
2023/09/04 02:37:08;;;;;;;12.67;9.50;;;;;;;12.67;100.00;102485.44;4772968;29;20512;-88
2023/09/04 02:39:35;;;;;;;10.88;8.93;;;;;;;12.63;100.00;102482.25;4773725;30;20040;-87
2023/09/04 02:42:01;;;;;;;14.55;9.68;;;;;;;12.63;100.00;102474.91;4789064;30;20047;-88
2023/09/04 02:44:29;;;;;;;13.33;9.43;;;;;;;12.64;100.00;102476.63;4788959;29;20043;-88
2023/09/04 02:46:54;;;;;;;12.05;9.38;;;;;;;12.66;100.00;102478.31;4788715;30;20124;-87
2023/09/04 02:49:20;;;;;;;13.47;10.10;;;;;;;12.69;100.00;102481.50;4772625;30;20519;-88
2023/09/04 02:51:45;;;;;;;11.70;9.47;;;;;;;12.66;100.00;102468.25;4787031;29;20041;-88
2023/09/04 02:54:11;;;;;;;15.23;9.97;;;;;;;12.67;100.00;102479.97;4802210;29;20280;-88
2023/09/04 02:56:39;;;;;;;16.27;10.20;;;;;;;12.66;100.00;102470.97;4787434;29;20118;-87
2023/09/04 02:59:04;;;;;;;14.33;10.67;;;;;;;12.65;100.00;102477.44;4771892;29;20793;-88
2023/09/04 03:01:30;;;;;;;15.85;10.77;;;;;;;12.63;100.00;102476.81;4772424;30;20035;-88
2023/09/04 03:03:55;;;;;;;15.43;10.80;;;;;;;12.60;100.00;102464.41;4787673;29;20035;-88
2023/09/04 03:06:21;;;;;;;13.37;10.87;;;;;;;12.58;100.00;102468.38;4787034;30;20023;-87
2023/09/04 03:08:46;;;;;;;15.03;10.43;;;;;;;12.53;100.00;102459.91;4802212;29;20138;-88
2023/09/04 03:11:13;;;;;;;16.17;11.10;;;;;;;12.51;100.00;102465.56;4802152;29;20031;-87
2023/09/04 03:13:40;;;;;;;16.95;11.75;;;;;;;12.55;100.00;102460.56;4772057;30;20078;-87
2023/09/04 03:16:05;;;;;;;16.20;11.53;;;;;;;12.50;100.00;102457.56;4791798;30;20043;-88
2023/09/04 03:18:33;;;;;;;14.50;11.20;;;;;;;12.49;100.00;102445.84;4805568;29;20038;-88
2023/09/04 03:20:58;;;;;;;19.65;11.63;;;;;;;12.46;100.00;102447.06;4790884;29;20485;-88
2023/09/04 03:23:23;;;;;;;19.30;11.70;;;;;;;12.46;100.00;102440.78;4790836;30;20050;-87
2023/09/04 03:25:49;;;;;;;13.87;11.37;;;;;;;12.46;100.00;102440.78;4775477;30;20043;-88
2023/09/04 03:28:14;;;;;;;14.40;11.40;;;;;;;12.42;100.00;102444.91;4790057;29;20055;-87
2023/09/04 03:30:40;;;;;;;14.87;11.07;;;;;;;12.40;100.00;102452.41;4790823;29;20039;-88
2023/09/04 03:33:05;;;;;;;20.07;11.63;;;;;;;12.33;100.00;102449.59;4790614;30;20757;-88
2023/09/04 03:35:30;;;;;;;14.87;11.33;;;;;;;12.29;100.00;102459.19;4790556;29;20130;-88
2023/09/04 03:37:56;;;;;;;16.77;11.67;;;;;;;12.26;100.00;102451.38;4790798;29;20047;-87
2023/09/04 03:40:24;;;;;;;16.00;11.43;;;;;;;12.25;100.00;102455.13;4790791;29;20081;-87
2023/09/04 03:42:55;;;;;;;19.48;12.68;;;;;;;12.25;100.00;102457.84;4775780;30;20047;-87
2023/09/04 03:45:21;;;;;;;16.17;11.80;;;;;;;12.24;100.00;102448.03;4790431;29;20092;-88
2023/09/04 03:47:48;;;;;;;17.13;11.80;;;;;;;12.25;100.00;102441.53;4790484;29;20039;-87
2023/09/04 03:50:13;;;;;;;15.60;11.63;;;;;;;12.21;100.00;102449.22;4790379;30;20040;-87
2023/09/04 03:52:41;;;;;;;18.77;11.82;;;;;;;12.20;100.00;102446.69;4775128;30;20039;-88
2023/09/04 03:55:13;;;;;;;18.33;12.03;;;;;;;12.20;100.00;102436.66;4789576;30;20049;-88
2023/09/04 03:57:47;;;;;;;17.77;11.98;;;;;;;12.16;100.00;102435.31;4791285;29;20051;-88
2023/09/04 04:00:17;;;;;;;18.70;12.15;;;;;;;12.15;100.00;102428.22;4791569;29;20169;-87
2023/09/04 04:02:43;;;;;;;19.70;11.88;;;;;;;12.13;100.00;102432.16;4791256;29;20075;-87
2023/09/04 04:05:10;;;;;;;19.13;11.73;;;;;;;12.14;100.00;102431.13;4789619;29;20035;-87
2023/09/04 04:07:36;;;;;;;18.50;12.57;;;;;;;12.16;100.00;102437.22;4789855;29;20057;-87
2023/09/04 04:10:02;;;;;;;17.30;12.40;;;;;;;12.14;100.00;102448.28;4791464;30;20035;-87
2023/09/04 04:12:27;;;;;;;17.53;12.00;;;;;;;12.11;100.00;102448.66;4760159;30;20043;-86
2023/09/04 04:14:57;;;;;;;21.57;12.87;;;;;;;12.10;100.00;102441.53;4789874;29;20092;-88
2023/09/04 04:17:25;;;;;;;15.93;11.90;;;;;;;12.06;100.00;102437.47;4791166;30;20045;-87
2023/09/04 04:19:53;;;;;;;14.77;11.15;;;;;;;12.07;100.00;102442.72;4804735;29;20507;-88
2023/09/04 04:22:23;;;;;;;16.73;12.18;;;;;;;12.02;100.00;102442.47;4775201;30;20130;-88
2023/09/04 04:24:49;;;;;;;17.45;12.27;;;;;;;12.01;100.00;102443.47;4788972;29;20083;-89
2023/09/04 04:27:15;;;;;;;15.50;12.10;;;;;;;12.02;100.00;102439.75;4789288;29;20067;-87
2023/09/04 04:29:42;;;;;;;18.10;12.38;;;;;;;12.02;100.00;102436.19;4790740;29;20552;-88
2023/09/04 04:32:10;;;;;;;16.02;12.18;;;;;;;12.02;100.00;102447.06;4774623;30;20035;-88
2023/09/04 04:34:36;;;;;;;18.40;12.00;;;;;;;11.97;100.00;102436.72;4790730;29;20031;-88
2023/09/04 04:37:01;;;;;;;16.10;11.67;;;;;;;11.97;100.00;102444.88;4789255;29;20051;-88
2023/09/04 04:39:27;;;;;;;16.67;12.07;;;;;;;11.94;100.00;102437.09;4774562;30;20126;-88
2023/09/04 04:41:53;;;;;;;22.10;12.70;;;;;;;11.95;100.00;102441.50;4790667;29;20051;-88
2023/09/04 04:44:18;;;;;;;18.33;13.10;;;;;;;11.93;100.00;102433.53;4789255;29;20315;-88
2023/09/04 04:46:46;;;;;;;17.88;12.82;;;;;;;11.92;100.00;102434.53;4774239;30;20565;-88
2023/09/04 04:49:13;;;;;;;16.98;12.10;;;;;;;11.94;100.00;102434.38;4789039;29;20043;-86
2023/09/04 04:51:39;;;;;;;18.10;13.00;;;;;;;11.92;100.00;102431.81;4790361;29;20039;-88
2023/09/04 04:54:04;;;;;;;15.93;12.20;;;;;;;11.96;100.00;102428.75;4803891;29;20045;-88
2023/09/04 04:56:30;;;;;;;17.70;13.30;;;;;;;11.96;100.00;102431.47;4788974;29;20092;-87
2023/09/04 04:58:55;;;;;;;17.60;12.73;;;;;;;11.97;100.00;102431.28;4790373;29;20528;-87
2023/09/04 05:01:23;;;;;;;16.00;11.90;;;;;;;11.97;100.00;102428.56;4789495;30;20488;-88
2023/09/04 05:03:48;;;;;;;17.70;12.87;;;;;;;12.01;100.00;102434.50;4788827;29;20789;-87
2023/09/04 05:06:14;;;;;;;20.73;12.97;;;;;;;12.03;100.00;102430.56;4774251;29;20039;-88
2023/09/04 05:08:39;;;;;;;18.53;12.70;;;;;;;12.06;100.00;102429.31;4788838;29;20317;-88
2023/09/04 05:11:06;;;;;;;17.03;12.03;;;;;;;12.06;100.00;102440.19;4790089;29;20546;-85
2023/09/04 05:13:32;;;;;;;18.67;12.23;;;;;;;12.08;100.00;102447.16;4790210;30;20035;-83
2023/09/04 05:16:04;;;;;;;17.98;12.32;;;;;;;12.11;100.00;102449.50;4788853;30;20032;-84
2023/09/04 05:18:33;;;;;;;15.77;12.13;;;;;;;12.16;100.00;102445.38;4788686;30;20492;-84
2023/09/04 05:20:59;;;;;;;17.25;12.65;;;;;;;12.21;100.00;102451.09;4773804;30;20027;-84
2023/09/04 05:23:24;;;;;;;17.20;12.77;;;;;;;12.21;100.00;102438.34;4790134;29;20172;-84
2023/09/04 05:25:51;;;;;;;16.47;12.20;;;;;;;12.27;100.00;102437.59;4788095;29;20067;-84
2023/09/04 05:28:16;;;;;;;16.38;11.75;;;;;;;12.34;100.00;102445.00;4790116;29;20039;-83
2023/09/04 05:30:42;;;;;;;16.60;12.40;;;;;;;12.43;100.00;102449.31;4788464;30;20553;-84
2023/09/04 05:33:07;;;;;;;19.53;12.13;;;;;;;12.46;100.00;102440.78;4789917;30;20043;-83
2023/09/04 05:35:33;;;;;;;15.87;11.90;;;;;;;12.49;100.00;102439.53;4789597;29;20035;-83
2023/09/04 05:37:58;;;;;;;17.77;12.37;;;;;;;12.56;100.00;102448.66;4773008;30;20097;-83
2023/09/04 05:40:24;;;;;;;17.47;12.50;;;;;;;12.62;100.00;102450.59;4789713;30;20492;-84
2023/09/04 05:42:50;;;;;;;17.52;12.55;;;;;;;12.66;100.00;102442.91;4789573;29;20123;-84
2023/09/04 05:45:16;;;;;;;19.58;12.75;;;;;;;12.70;100.00;102442.34;4773404;30;20360;-84
2023/09/04 05:47:42;;;;;;;16.10;12.13;;;;;;;12.77;100.00;102443.28;4789411;30;20040;-84
2023/09/04 05:50:08;;;;;;;14.90;11.73;;;;;;;12.86;100.00;102445.88;4773163;30;20066;-84
2023/09/04 05:52:33;;;;;;;19.67;12.57;;;;;;;12.93;100.00;102442.19;4788047;29;20062;-84
2023/09/04 05:54:58;;;;;;;15.77;12.10;;;;;;;12.99;100.00;102443.28;4787821;29;20473;-87
2023/09/04 05:57:24;;;;;;;49.53;14.00;;;;;;;13.11;100.00;102447.22;4772469;30;20047;-86
2023/09/04 05:59:50;;;;;;;16.87;12.40;;;;;;;13.22;100.00;102453.19;4789606;29;20035;-85
2023/09/04 06:02:15;;;;;;;16.55;12.30;;;;;;;13.28;100.00;102446.97;4773002;30;20065;-84
2023/09/04 06:04:40;;;;;;;16.83;12.00;;;;;;;13.37;100.00;102444.97;4773240;30;20035;-86
2023/09/04 06:07:06;;;;;;;17.80;12.27;;;;;;;13.46;100.00;102441.94;4772691;30;20551;-86
2023/09/04 06:09:32;;;;;;;16.53;12.97;;;;;;;13.54;100.00;102448.25;4772861;29;20277;-86
2023/09/04 06:11:58;;;;;;;17.70;13.02;;;;;;;13.63;100.00;102447.13;4788832;29;20091;-87
2023/09/04 06:14:23;;;;;;;18.27;12.67;;;;;;;13.68;100.00;102448.22;4772745;30;20070;-86
2023/09/04 06:16:49;;;;;;;20.20;12.95;;;;;;;13.77;100.00;102439.88;4789070;30;20043;-86
2023/09/04 06:19:14;;;;;;;18.60;12.47;;;;;;;13.81;100.00;102447.44;4787325;29;20118;-87
2023/09/04 06:21:40;;;;;;;17.80;12.43;;;;;;;13.93;100.00;102441.47;4788781;29;20043;-87
2023/09/04 06:24:08;;;;;;;19.33;12.07;;;;;;;14.00;100.00;102445.91;4786886;29;20547;-87
2023/09/04 06:26:33;;;;;;;17.23;13.10;;;;;;;14.06;100.00;102444.28;4788598;29;20043;-86
2023/09/04 06:28:59;;;;;;;15.10;11.93;;;;;;;14.15;100.00;102448.53;4788408;29;20035;-86
2023/09/04 06:31:27;;;;;;;17.52;12.25;;;;;;;14.24;100.00;102451.13;4788171;29;20043;-86
2023/09/04 06:33:54;;;;;;;17.25;12.80;;;;;;;14.29;100.00;102443.16;4788707;29;20161;-87
2023/09/04 06:36:20;;;;;;;15.48;12.10;;;;;;;14.37;100.00;102437.53;4788184;29;20445;-86
2023/09/04 06:38:53;;;;;;;17.40;12.80;;;;;;;14.45;100.00;102439.25;4788061;29;20157;-87
2023/09/04 06:41:21;;;;;;;14.68;12.02;;;;;;;14.55;100.00;102445.19;4787114;30;20035;-87
2023/09/04 06:43:47;;;;;;;16.13;12.40;;;;;;;14.65;100.00;102440.22;4787209;29;20035;-86
2023/09/04 06:46:13;;;;;;;17.77;12.27;;;;;;;14.73;100.00;102442.78;4788083;29;20039;-87
2023/09/04 06:48:39;;;;;;;17.63;12.15;;;;;;;14.80;100.00;102442.78;4786120;29;20043;-87
2023/09/04 06:51:04;;;;;;;15.75;12.35;;;;;;;14.87;100.00;102442.81;4801386;29;20034;-86
2023/09/04 06:53:30;;;;;;;15.43;11.77;;;;;;;14.96;100.00;102438.03;4786836;29;20040;-86
2023/09/04 06:55:55;;;;;;;14.70;11.87;;;;;;;15.05;100.00;102440.34;4787747;29;20111;-86
2023/09/04 06:58:22;;;;;;;16.25;12.75;;;;;;;15.15;100.00;102436.38;4787919;29;20070;-86
2023/09/04 07:00:47;;;;;;;16.47;12.47;;;;;;;15.22;100.00;102426.28;4801927;29;20090;-88
2023/09/04 07:03:15;;;;;;;15.43;12.30;;;;;;;15.34;100.00;102434.69;4788170;29;20125;-87
2023/09/04 07:05:41;;;;;;;16.23;12.57;;;;;;;15.43;100.00;102433.47;4786998;30;20073;-86
2023/09/04 07:08:08;;;;;;;18.57;13.70;;;;;;;15.51;100.00;102435.97;4786947;29;20549;-87
2023/09/04 07:10:35;;;;;;;17.48;12.07;;;;;;;15.58;100.00;102431.38;4786804;29;20039;-86
2023/09/04 07:13:01;;;;;;;15.82;12.65;;;;;;;15.65;100.00;102425.91;4788405;29;20040;-87
2023/09/04 07:15:30;;;;;;;17.47;12.90;;;;;;;15.72;100.00;102431.34;4788060;29;20031;-88
2023/09/04 07:17:59;;;;;;;16.40;12.32;;;;;;;15.88;100.00;102427.38;4786700;29;20597;-88
2023/09/04 07:20:26;;;;;;;17.13;12.38;;;;;;;15.95;100.00;102428.22;4788234;30;20039;-85
2023/09/04 07:22:51;;;;;;;16.77;12.05;;;;;;;16.06;100.00;102430.31;4788654;30;20047;-87
2023/09/04 07:25:17;;;;;;;13.77;11.73;;;;;;;16.17;100.00;102425.22;4786759;29;20047;-87
2023/09/04 07:27:42;;;;;;;14.13;11.20;;;;;;;16.25;100.00;102425.81;4771814;30;20481;-87
2023/09/04 07:30:08;;;;;;;16.05;11.77;;;;;;;16.31;100.00;102424.13;4786799;29;20465;-87
2023/09/04 07:32:34;;;;;;;14.67;11.60;;;;;;;16.43;100.00;102427.88;4771999;30;20043;-88
2023/09/04 07:34:59;;;;;;;15.68;12.00;;;;;;;16.55;100.00;102435.41;4786757;29;20161;-87
2023/09/04 07:37:28;;;;;;;14.07;10.53;;;;;;;16.66;100.00;102429.25;4788025;29;20388;-87
2023/09/04 07:39:54;;;;;;;14.60;11.10;;;;;;;16.77;100.00;102435.94;4788180;30;20388;-87
2023/09/04 07:42:21;;;;;;;13.13;10.67;;;;;;;16.86;100.00;102437.41;4786895;29;20096;-87
2023/09/04 07:44:46;;;;;;;15.77;10.38;;;;;;;16.97;100.00;102433.16;4787772;29;20400;-87
2023/09/04 07:47:14;;;;;;;12.67;10.63;;;;;;;17.07;100.00;102435.41;4786626;29;20031;-85
2023/09/04 07:49:39;;;;;;;14.32;10.52;;;;;;;17.18;100.00;102443.78;4788274;29;20039;-85
2023/09/04 07:52:05;;;;;;;15.20;10.07;;;;;;;17.27;100.00;102429.78;4786742;29;20039;-84
2023/09/04 07:54:31;;;;;;;12.80;10.20;;;;;;;17.38;100.00;102431.81;4786233;29;20035;-85
2023/09/04 07:56:56;;;;;;;16.67;9.77;;;;;;;17.46;100.00;102417.81;4786403;29;20043;-85
2023/09/04 07:59:22;;;;;;;13.97;9.80;;;;;;;17.56;100.00;102417.31;4786101;29;20063;-84
2023/09/04 08:01:47;;;;;;;12.37;9.13;;;;;;;17.65;100.00;102426.94;4789203;29;20070;-85
2023/09/04 08:04:13;;;;;;;15.07;9.43;;;;;;;17.73;100.00;102417.59;4789846;30;20289;-84
2023/09/04 08:06:39;;;;;;;12.70;9.27;;;;;;;17.83;100.00;102412.44;4789715;29;20494;-85
2023/09/04 08:09:05;;;;;;;12.13;9.17;;;;;;;17.92;100.00;102421.22;4790143;30;20130;-83
2023/09/04 08:11:30;;;;;;;10.30;8.67;;;;;;;18.03;100.00;102412.25;4759833;29;20040;-83
2023/09/04 08:13:56;;;;;;;9.63;8.45;;;;;;;18.11;100.00;102413.84;4789941;30;20049;-84
2023/09/04 08:16:21;;;;;;;9.97;8.10;;;;;;;18.20;100.00;102418.00;4790134;29;20054;-83
2023/09/04 08:18:47;;;;;;;11.27;8.10;;;;;;;18.28;100.00;102413.25;4789950;30;20492;-84
2023/09/04 08:21:12;;;;;;;10.90;8.20;;;;;;;18.39;100.00;102409.75;4789439;29;20043;-84
2023/09/04 08:23:38;;;;;;;10.97;8.50;;;;;;;18.48;100.00;102413.00;4789437;30;20088;-83
2023/09/04 08:26:04;;;;;;;13.43;8.80;;;;;;;18.56;100.00;102416.28;4790311;30;20568;-83
2023/09/04 08:28:32;;;;;;;10.70;8.48;;;;;;;18.66;100.00;102415.75;4791188;30;20043;-84
2023/09/04 08:30:58;;;;;;;9.57;7.68;;;;;;;18.76;100.00;102417.94;4789517;29;20035;-84
2023/09/04 08:33:23;;;;;;;10.47;6.97;;;;;;;18.86;100.00;102410.00;4790695;29;20147;-84
2023/09/04 08:35:49;;;;;;;8.93;6.93;;;;;;;18.98;100.00;102409.22;4789833;29;20104;-83
2023/09/04 08:38:14;;;;;;;8.60;6.60;;;;;;;19.09;100.00;102408.41;4759471;30;20481;-85
2023/09/04 08:40:41;;;;;;;9.23;6.67;;;;;;;19.26;99.27;102414.06;4789068;30;20365;-83
2023/09/04 08:43:07;;;;;;;7.68;6.47;;;;;;;19.37;97.87;102409.66;4789155;29;20488;-84
2023/09/04 08:45:35;;;;;;;8.70;6.20;;;;;;;19.48;97.40;102406.09;4759836;29;20405;-84
2023/09/04 08:48:02;;;;;;;9.43;6.40;;;;;;;19.60;95.30;102408.84;4790256;30;20540;-84
2023/09/04 08:50:29;;;;;;;7.00;5.72;;;;;;;19.81;95.98;102410.19;4788574;29;20165;-85
2023/09/04 08:52:54;;;;;;;7.38;6.20;;;;;;;19.93;95.44;102405.53;4781382;29;20047;-84
2023/09/04 08:55:20;;;;;;;8.53;5.70;;;;;;;20.08;93.60;102412.47;4808479;29;20050;-84
2023/09/04 08:57:46;;;;;;;9.20;5.50;;;;;;;20.20;91.80;102412.47;4792285;29;20096;-84
2023/09/04 09:00:12;;;;;;;9.98;5.22;;;;;;;20.31;90.60;102409.69;4791737;29;20098;-84
2023/09/04 09:02:39;;;;;;;9.73;5.25;;;;;;;20.47;89.86;102408.06;4791626;29;20070;-84
2023/09/04 09:05:07;;;;;;;6.17;5.00;;;;;;;20.63;88.32;102400.94;4807967;29;20510;-86
2023/09/04 09:07:36;;;;;;;6.18;5.00;;;;;;;20.78;88.00;102396.84;4791445;29;20043;-86
2023/09/04 09:10:04;;;;;;;5.82;4.88;;;;;;;20.89;86.96;102398.72;4807059;29;20077;-85
2023/09/04 09:12:30;;;;;;;5.30;4.57;;;;;;;21.05;85.83;102399.81;4787340;29;20034;-85
2023/09/04 09:14:58;;;;;;;8.20;4.72;;;;;;;21.20;85.76;102393.75;4790214;30;20469;-85
2023/09/04 09:17:24;;;;;;;4.80;4.30;;;;;;;21.32;83.75;102400.00;4788893;29;20096;-86
2023/09/04 09:19:52;;;;;;;5.85;4.10;;;;;;;21.45;82.96;102406.28;4788957;29;20032;-85
2023/09/04 09:22:19;;;;;;;10.63;4.37;;;;;;;21.59;81.60;102399.38;4774004;30;20031;-84
2023/09/04 09:24:50;;;;;;;9.82;4.40;;;;;;;21.66;80.04;102397.28;4787139;29;20043;-84
2023/09/04 09:27:18;;;;;;;7.70;4.30;;;;;;;21.83;79.43;102405.50;4788831;29;20057;-84
2023/09/04 09:29:45;;;;;;;5.65;3.90;;;;;;;21.93;79.20;102412.31;4788584;29;20043;-84
2023/09/04 09:32:10;;;;;;;6.82;3.88;;;;;;;22.04;76.37;102403.03;4773587;30;20039;-84
2023/09/04 09:34:36;;;;;;;6.63;3.70;;;;;;;22.17;76.66;102399.09;4789788;30;20040;-84
2023/09/04 09:37:02;;;;;;;5.30;3.70;;;;;;;22.33;76.55;102403.75;4773447;30;20130;-84
2023/09/04 09:39:29;;;;;;;4.55;3.22;;;;;;;22.55;74.59;102402.91;4789689;30;20092;-84
2023/09/04 09:41:58;;;;;;;5.70;3.28;;;;;;;22.72;74.10;102395.34;4789433;29;20047;-84
2023/09/04 09:44:29;;;;;;;5.43;3.23;;;;;;;22.91;73.53;102401.38;4789592;30;20035;-84
2023/09/04 09:46:54;;;;;;;3.88;3.10;;;;;;;23.12;72.45;102396.06;4788156;30;20035;-84
2023/09/04 09:49:20;;;;;;;5.70;3.47;;;;;;;23.32;72.69;102400.91;4789575;30;20503;-84
2023/09/04 09:51:51;;;;;;;4.03;3.20;;;;;;;23.40;70.56;102394.06;4772861;30;20050;-85
2023/09/04 09:54:32;;;;;;;4.47;3.17;;;;;;;23.59;69.84;102387.03;4789292;29;20045;-89
2023/09/04 09:56:59;;;;;;;6.65;3.20;;;;;;;23.81;67.65;102388.81;4788993;30;20035;-84
2023/09/04 09:59:29;;;;;;;3.88;3.35;;;;;;;24.03;68.02;102382.31;4787948;29;20493;-83
2023/09/04 10:01:54;;;;;;;4.50;3.23;;;;;;;24.19;66.76;102375.72;4787558;29;20207;-84
2023/09/04 10:04:21;;;;;;;3.72;2.88;;;;;;;24.25;64.90;102371.03;4789053;30;20044;-85
2023/09/04 10:06:48;;;;;;;3.33;2.58;;;;;;;24.35;64.26;102371.06;4789176;30;20078;-84
2023/09/04 10:09:21;;;;;;;4.13;2.90;;;;;;;24.57;63.06;102359.78;4788137;29;20039;-84
2023/09/04 10:11:56;;;;;;;4.15;2.75;;;;;;;24.77;63.11;102369.25;4788890;29;20118;-89
2023/09/04 10:14:38;;;;;;;5.18;2.92;;;;;;;24.99;62.36;102375.38;4789004;29;20039;-89
2023/09/04 10:17:17;;;;;;;3.58;2.70;;;;;;;25.19;61.67;102370.97;4789113;29;20042;-89
2023/09/04 10:19:52;;;;;;;3.58;2.60;;;;;;;25.38;61.37;102374.06;4789293;30;20114;-89
2023/09/04 10:22:27;;;;;;;4.83;2.80;;;;;;;25.54;60.34;102374.84;4772790;30;20120;-89
2023/09/04 10:25:01;;;;;;;4.50;3.03;;;;;;;25.71;60.88;102369.81;4772401;30;20031;-90
2023/09/04 10:27:35;;;;;;;3.95;3.20;;;;;;;25.72;59.70;102368.72;4788458;30;20039;-89
2023/09/04 10:30:05;;;;;;;6.13;3.00;;;;;;;25.94;58.92;102355.56;4787844;30;20039;-90
2023/09/04 10:32:31;;;;;;;5.60;3.42;;;;;;;26.08;57.98;102354.72;4787538;30;20487;-89
2023/09/04 10:34:57;;;;;;;3.50;2.87;;;;;;;26.29;56.49;102354.63;4787924;30;20122;-90
2023/09/04 10:37:31;;;;;;;3.30;3.00;;;;;;;26.40;56.56;102347.88;4787531;29;20477;-89
2023/09/04 10:40:03;;;;;;;4.53;2.88;;;;;;;26.56;54.71;102337.50;4788766;29;20066;-90
2023/09/04 10:42:35;;;;;;;5.13;2.97;;;;;;;26.65;53.48;102345.22;4772527;30;20037;-90
2023/09/04 10:45:18;;;;;;;3.83;2.67;;;;;;;26.76;53.55;102332.94;4787562;29;20032;-90
2023/09/04 10:47:49;;;;;;;3.33;2.40;;;;;;;26.92;52.77;102331.69;4772821;30;20027;-90
2023/09/04 10:50:37;;;;;;;3.88;2.40;;;;;;;27.09;53.41;102328.50;4786792;29;20062;-90
2023/09/04 10:53:05;;;;;;;3.25;2.38;;;;;;;27.24;49.61;102326.66;4802289;29;20042;-90
2023/09/04 10:55:32;;;;;;;3.80;2.42;;;;;;;27.44;48.43;102332.06;4786678;29;20032;-89
2023/09/04 10:58:01;;;;;;;2.80;2.50;;;;;;;27.71;48.32;102318.69;4788720;29;20035;-90
2023/09/04 11:00:51;;;;;;;5.20;2.50;;;;;;;27.87;47.87;102317.38;4786951;29;20097;-89
2023/09/04 11:03:24;;;;;;;4.95;2.33;;;;;;;28.14;48.55;102314.00;4782008;29;20142;-90
2023/09/04 11:06:01;;;;;;;4.35;2.58;;;;;;;28.42;48.35;102316.94;4787003;29;20036;-89
2023/09/04 11:08:38;;;;;;;2.83;2.50;;;;;;;28.69;46.42;102307.91;4787391;30;20047;-90
2023/09/04 11:11:11;;;;;;;5.63;2.47;;;;;;;28.99;45.47;102300.13;4772083;30;20051;-90